createdAt,value
2017-11-28T05:00:45.406Z,0
2017-11-28T05:01:10.867Z,0
2017-11-28T05:01:36.365Z,0
2017-11-28T05:02:01.862Z,0
2017-11-28T05:02:27.326Z,0
2017-11-28T05:02:52.784Z,0
2017-11-28T05:03:18.301Z,0
2017-11-28T05:03:43.842Z,0
2017-11-28T05:04:09.323Z,0
2017-11-28T05:04:34.788Z,0
2017-11-28T05:05:00.269Z,0
2017-11-28T05:05:25.773Z,0
2017-11-28T05:05:51.262Z,0
2017-11-28T05:06:16.763Z,0
2017-11-28T05:06:42.271Z,0
2017-11-28T05:07:07.730Z,0
2017-11-28T05:07:33.231Z,0
2017-11-28T05:07:58.702Z,0
2017-11-28T05:08:24.190Z,0
2017-11-28T05:08:49.672Z,0
2017-11-28T05:09:15.159Z,0
2017-11-28T05:09:40.669Z,0
2017-11-28T05:10:06.149Z,0
2017-11-28T05:10:31.627Z,0
2017-11-28T05:10:57.119Z,0
2017-11-28T05:11:22.606Z,0
2017-11-28T05:11:48.085Z,0
2017-11-28T05:12:13.530Z,0
2017-11-28T05:12:39.011Z,0
2017-11-28T05:13:04.520Z,0
2017-11-28T05:13:30.021Z,0
2017-11-28T05:13:55.537Z,0
2017-11-28T05:14:21.017Z,0
2017-11-28T05:14:46.502Z,0
2017-11-28T05:15:12.013Z,0
2017-11-28T05:15:37.466Z,0
2017-11-28T05:16:02.948Z,0
2017-11-28T05:16:28.427Z,0
2017-11-28T05:16:53.935Z,0
2017-11-28T05:17:19.412Z,0
2017-11-28T05:17:44.916Z,0
2017-11-28T05:18:10.388Z,0
2017-11-28T05:18:35.870Z,0
2017-11-28T05:19:01.344Z,0
2017-11-28T05:19:26.797Z,0
2017-11-28T05:19:52.269Z,0
2017-11-28T05:20:17.783Z,0
2017-11-28T05:20:43.262Z,0
2017-11-28T05:21:08.755Z,0
2017-11-28T05:21:34.237Z,0
2017-11-28T05:21:59.741Z,0
2017-11-28T05:22:25.234Z,0
2017-11-28T05:22:50.783Z,0
2017-11-28T05:23:16.777Z,0
2017-11-28T05:23:41.782Z,0
2017-11-28T05:24:07.265Z,0
2017-11-28T05:24:32.815Z,0
2017-11-28T05:24:58.307Z,0
2017-11-28T05:25:23.755Z,0
2017-11-28T05:25:49.249Z,0
2017-11-28T05:26:14.752Z,0
2017-11-28T05:26:40.237Z,0
2017-11-28T05:27:05.693Z,0
2017-11-28T05:27:31.338Z,0
2017-11-28T05:27:56.858Z,0
2017-11-28T05:28:22.334Z,0
2017-11-28T05:28:47.831Z,0
2017-11-28T05:29:13.433Z,0
2017-11-28T05:29:39.079Z,0
2017-11-28T05:30:04.546Z,0
2017-11-28T05:30:30.045Z,0
2017-11-28T05:30:55.518Z,0
2017-11-28T05:31:21.017Z,0
2017-11-28T05:31:46.513Z,0
2017-11-28T05:32:12.063Z,0
2017-11-28T05:32:37.581Z,0
2017-11-28T05:33:03.038Z,0
2017-11-28T05:33:28.526Z,0
2017-11-28T05:33:53.998Z,0
2017-11-28T05:34:19.521Z,0
2017-11-28T05:34:45.023Z,0
2017-11-28T05:35:10.504Z,0
2017-11-28T05:35:35.991Z,0
2017-11-28T05:36:01.471Z,0
2017-11-28T05:36:26.960Z,0
2017-11-28T05:36:52.458Z,0
2017-11-28T05:38:01.169Z,0
2017-11-28T05:38:26.699Z,0
2017-11-28T05:38:52.133Z,0
2017-11-28T05:39:17.621Z,0
2017-11-28T05:39:43.196Z,0
2017-11-28T05:40:08.680Z,0
2017-11-28T05:40:34.158Z,0
2017-11-28T05:40:59.698Z,0
2017-11-28T05:41:25.234Z,0
2017-11-28T05:41:50.795Z,0
2017-11-28T05:42:16.248Z,0
2017-11-28T05:42:41.702Z,0
2017-11-28T05:43:07.233Z,0
2017-11-28T05:43:32.732Z,0
2017-11-28T05:43:58.265Z,0
2017-11-28T05:44:23.705Z,0
2017-11-28T05:44:49.172Z,0
2017-11-28T05:45:14.967Z,0
2017-11-28T05:45:40.459Z,0
2017-11-28T05:46:05.938Z,0
2017-11-28T05:46:31.429Z,0
2017-11-28T05:46:56.929Z,0
2017-11-28T05:47:22.414Z,0
2017-11-28T05:48:26.059Z,0
2017-11-28T05:48:51.541Z,0
2017-11-28T05:49:17.027Z,0
2017-11-28T05:49:42.500Z,0
2017-11-28T05:50:08.017Z,0
2017-11-28T05:50:33.478Z,0
2017-11-28T05:50:58.976Z,0
2017-11-28T05:51:24.454Z,0
2017-11-28T05:51:49.953Z,0
2017-11-28T05:52:15.435Z,0
2017-11-28T05:52:40.964Z,0
2017-11-28T05:53:06.471Z,0
2017-11-28T05:53:31.980Z,0
2017-11-28T05:53:57.471Z,0
2017-11-28T05:54:22.969Z,0
2017-11-28T05:54:48.454Z,0
2017-11-28T05:55:13.919Z,0
2017-11-28T05:55:39.412Z,0
2017-11-28T05:56:04.893Z,0
2017-11-28T05:56:30.398Z,0
2017-11-28T05:56:55.819Z,0
2017-11-28T05:57:21.293Z,0
2017-11-28T05:57:46.792Z,0
2017-11-28T05:58:12.279Z,0
2017-11-28T05:58:37.768Z,0
2017-11-28T05:59:03.210Z,0
2017-11-28T05:59:28.714Z,0
2017-11-28T05:59:54.169Z,0
2017-11-28T06:00:19.723Z,0
2017-11-28T06:00:45.233Z,0
2017-11-28T06:01:10.727Z,0
2017-11-28T06:01:36.192Z,0
2017-11-28T06:02:01.613Z,0
2017-11-28T06:02:27.079Z,0
2017-11-28T06:02:52.561Z,0
2017-11-28T06:03:18.029Z,0
2017-11-28T06:03:43.536Z,0
2017-11-28T06:04:09.019Z,0
2017-11-28T06:04:34.478Z,0
2017-11-28T06:04:59.985Z,0
2017-11-28T06:05:25.485Z,0
2017-11-28T06:05:50.982Z,0
2017-11-28T06:06:16.448Z,0
2017-11-28T06:06:41.950Z,0
2017-11-28T06:07:07.443Z,0
2017-11-28T06:07:32.888Z,0
2017-11-28T06:07:58.365Z,0
2017-11-28T06:08:23.828Z,0
2017-11-28T06:08:49.308Z,0
2017-11-28T06:09:14.819Z,0
2017-11-28T06:09:40.300Z,0
2017-11-28T06:10:05.831Z,0
2017-11-28T06:10:31.284Z,0
2017-11-28T06:10:56.816Z,0
2017-11-28T06:11:22.322Z,0
2017-11-28T06:11:47.846Z,0
2017-11-28T06:12:13.325Z,0
2017-11-28T06:12:38.789Z,0
2017-11-28T06:13:04.303Z,0
2017-11-28T06:13:29.796Z,0
2017-11-28T06:13:55.315Z,0
2017-11-28T06:14:20.768Z,0
2017-11-28T06:14:46.229Z,0
2017-11-28T06:15:11.731Z,0
2017-11-28T06:15:37.231Z,0
2017-11-28T06:16:02.702Z,0
2017-11-28T06:16:28.208Z,0
2017-11-28T06:16:53.712Z,0
2017-11-28T06:17:19.185Z,0
2017-11-28T06:17:44.683Z,0
2017-11-28T06:18:10.163Z,0
2017-11-28T06:18:35.638Z,0
2017-11-28T06:19:01.181Z,0
2017-11-28T06:19:26.653Z,0
2017-11-28T06:19:52.143Z,0
2017-11-28T06:20:17.646Z,0
2017-11-28T06:20:43.144Z,0
2017-11-28T06:21:08.692Z,0
2017-11-28T06:21:34.157Z,0
2017-11-28T06:21:59.637Z,0
2017-11-28T06:22:25.115Z,0
2017-11-28T06:22:50.624Z,0
2017-11-28T06:23:16.127Z,0
2017-11-28T06:23:41.617Z,0
2017-11-28T06:24:07.115Z,0
2017-11-28T06:24:32.607Z,0
2017-11-28T06:24:58.119Z,0
2017-11-28T06:25:23.601Z,0
2017-11-28T06:25:49.120Z,0
2017-11-28T06:26:14.575Z,0
2017-11-28T06:26:40.047Z,0
2017-11-28T06:27:05.543Z,0
2017-11-28T06:27:31.034Z,0
2017-11-28T06:27:56.539Z,0
2017-11-28T06:28:22.039Z,0
2017-11-28T06:28:47.534Z,0
2017-11-28T06:29:13.054Z,0
2017-11-28T06:29:38.539Z,0
2017-11-28T06:30:04.033Z,0
2017-11-28T06:30:29.529Z,0
2017-11-28T06:30:54.994Z,0
2017-11-28T06:31:20.444Z,0
2017-11-28T06:31:45.924Z,0
2017-11-28T06:32:11.424Z,0
2017-11-28T06:32:36.901Z,0
2017-11-28T06:33:02.383Z,0
2017-11-28T06:33:27.810Z,0
2017-11-28T06:34:46.735Z,0
2017-11-28T06:35:12.220Z,0
2017-11-28T06:35:37.691Z,0
2017-11-28T06:36:03.154Z,0
2017-11-28T06:37:27.119Z,0
2017-11-28T06:37:52.600Z,0
2017-11-28T06:38:18.108Z,0
2017-11-28T06:38:43.529Z,0
2017-11-28T06:39:09.003Z,4
2017-11-28T06:39:34.502Z,4
2017-11-28T06:39:59.993Z,4
2017-11-28T06:40:25.505Z,4
2017-11-28T06:40:50.996Z,4
2017-11-28T06:41:16.519Z,4
2017-11-28T06:41:41.966Z,4
2017-11-28T06:42:07.471Z,4
2017-11-28T06:42:32.938Z,4
2017-11-28T06:42:58.431Z,4
2017-11-28T06:43:23.893Z,4
2017-11-28T06:43:49.360Z,4
2017-11-28T06:44:14.874Z,4
2017-11-28T06:44:40.291Z,4
2017-11-28T06:45:05.784Z,8
2017-11-28T06:45:31.293Z,8
2017-11-28T06:45:56.775Z,4
2017-11-28T06:46:22.287Z,8
2017-11-28T06:46:47.738Z,8
2017-11-28T06:47:13.213Z,8
2017-11-28T06:47:38.672Z,8
2017-11-28T06:48:04.148Z,8
2017-11-28T06:48:29.647Z,12
2017-11-28T06:48:55.092Z,12
2017-11-28T06:49:20.576Z,12
2017-11-28T06:50:29.272Z,12
2017-11-28T06:50:54.794Z,16
2017-11-28T06:51:20.258Z,16
2017-11-28T06:51:45.708Z,16
2017-11-28T06:52:11.195Z,16
2017-11-28T06:52:36.663Z,20
2017-11-28T06:53:02.157Z,20
2017-11-28T06:53:27.641Z,24
2017-11-28T06:53:53.117Z,24
2017-11-28T06:54:18.569Z,24
2017-11-28T06:54:44.040Z,24
2017-11-28T06:55:09.531Z,28
2017-11-28T06:55:35.020Z,32
2017-11-28T06:56:00.507Z,32
2017-11-28T06:56:26.007Z,32
2017-11-28T06:56:51.460Z,32
2017-11-28T06:57:16.961Z,32
2017-11-28T06:57:42.474Z,36
2017-11-28T06:58:07.966Z,36
2017-11-28T06:58:33.467Z,40
2017-11-28T06:58:58.912Z,40
2017-11-28T06:59:24.366Z,44
2017-11-28T06:59:49.874Z,44
2017-11-28T07:00:15.340Z,48
2017-11-28T07:00:40.817Z,48
2017-11-28T07:01:44.467Z,56
2017-11-28T07:02:09.942Z,52
2017-11-28T07:02:35.447Z,56
2017-11-28T07:03:00.919Z,60
2017-11-28T07:04:19.827Z,72
2017-11-28T07:04:45.306Z,76
2017-11-28T07:05:10.804Z,76
2017-11-28T07:05:36.260Z,80
2017-11-28T07:06:01.755Z,80
2017-11-28T07:06:27.249Z,84
2017-11-28T07:06:52.728Z,88
2017-11-28T07:07:18.200Z,92
2017-11-28T07:07:43.698Z,96
2017-11-28T07:08:09.155Z,100
2017-11-28T07:08:34.640Z,104
2017-11-28T07:09:00.115Z,112
2017-11-28T07:09:25.612Z,116
2017-11-28T07:09:51.152Z,124
2017-11-28T07:10:16.593Z,132
2017-11-28T07:10:42.086Z,140
2017-11-28T07:11:07.590Z,144
2017-11-28T07:11:33.119Z,148
2017-11-28T07:11:58.599Z,156
2017-11-28T07:12:24.069Z,160
2017-11-28T07:12:49.529Z,168
2017-11-28T07:13:15.038Z,172
2017-11-28T07:13:40.528Z,176
2017-11-28T07:14:06.008Z,184
2017-11-28T07:14:31.505Z,188
2017-11-28T07:14:57.003Z,192
2017-11-28T07:15:22.494Z,200
2017-11-28T07:15:47.952Z,208
2017-11-28T07:16:13.491Z,216
2017-11-28T07:16:38.958Z,224
2017-11-28T07:17:04.413Z,228
2017-11-28T07:17:29.928Z,232
2017-11-28T07:17:55.475Z,236
2017-11-28T07:18:20.932Z,240
2017-11-28T07:18:46.434Z,248
2017-11-28T07:19:11.933Z,256
2017-11-28T07:19:37.437Z,264
2017-11-28T07:20:02.880Z,264
2017-11-28T07:20:28.380Z,276
2017-11-28T07:20:53.856Z,280
2017-11-28T07:21:19.433Z,284
2017-11-28T07:21:44.941Z,288
2017-11-28T07:22:10.360Z,300
2017-11-28T07:22:35.861Z,304
2017-11-28T07:23:01.304Z,312
2017-11-28T07:23:26.819Z,332
2017-11-28T07:23:52.299Z,348
2017-11-28T07:24:17.773Z,360
2017-11-28T07:24:43.276Z,364
2017-11-28T07:25:08.755Z,368
2017-11-28T07:25:34.201Z,368
2017-11-28T07:25:59.721Z,376
2017-11-28T07:26:25.204Z,384
2017-11-28T07:26:50.772Z,388
2017-11-28T07:27:16.267Z,396
2017-11-28T07:27:41.734Z,404
2017-11-28T07:28:07.215Z,416
2017-11-28T07:28:32.713Z,424
2017-11-28T07:28:58.169Z,432
2017-11-28T07:29:23.673Z,440
2017-11-28T07:29:49.131Z,448
2017-11-28T07:30:14.673Z,456
2017-11-28T07:30:40.106Z,468
2017-11-28T07:31:05.600Z,476
2017-11-28T07:31:31.117Z,488
2017-11-28T07:31:56.572Z,496
2017-11-28T07:32:22.061Z,508
2017-11-28T07:32:47.562Z,512
2017-11-28T07:33:13.047Z,524
2017-11-28T07:33:38.509Z,536
2017-11-28T07:34:04.001Z,544
2017-11-28T07:34:29.506Z,556
2017-11-28T07:34:54.979Z,564
2017-11-28T07:35:20.466Z,576
2017-11-28T07:35:45.951Z,588
2017-11-28T07:36:11.425Z,600
2017-11-28T07:36:36.880Z,608
2017-11-28T07:37:02.385Z,620
2017-11-28T07:37:27.850Z,628
2017-11-28T07:37:53.353Z,644
2017-11-28T07:38:18.884Z,660
2017-11-28T07:38:44.337Z,680
2017-11-28T07:39:09.812Z,708
2017-11-28T07:39:35.262Z,740
2017-11-28T07:40:00.736Z,764
2017-11-28T07:40:26.201Z,760
2017-11-28T07:40:51.683Z,756
2017-11-28T07:41:17.227Z,768
2017-11-28T07:41:42.718Z,776
2017-11-28T07:42:08.184Z,784
2017-11-28T07:42:33.630Z,792
2017-11-28T07:42:59.155Z,824
2017-11-28T07:43:24.625Z,856
2017-11-28T07:43:50.076Z,872
2017-11-28T07:44:15.579Z,860
2017-11-28T07:44:41.049Z,848
2017-11-28T07:45:06.524Z,836
2017-11-28T07:45:32.034Z,836
2017-11-28T07:45:57.566Z,852
2017-11-28T07:46:23.045Z,860
2017-11-28T07:46:48.541Z,860
2017-11-28T07:47:14.012Z,864
2017-11-28T07:47:39.527Z,876
2017-11-28T07:48:04.979Z,888
2017-11-28T07:48:30.481Z,904
2017-11-28T07:48:56.008Z,928
2017-11-28T07:49:21.456Z,956
2017-11-28T07:49:46.950Z,1020
2017-11-28T07:50:12.450Z,1108
2017-11-28T07:50:37.945Z,1232
2017-11-28T07:51:03.422Z,1280
2017-11-28T07:51:28.927Z,1296
2017-11-28T07:51:54.414Z,1244
2017-11-28T07:52:19.894Z,1168
2017-11-28T07:52:45.356Z,1104
2017-11-28T07:53:10.833Z,1092
2017-11-28T07:53:36.343Z,1032
2017-11-28T07:54:01.841Z,1008
2017-11-28T07:54:27.317Z,1004
2017-11-28T07:54:52.761Z,1076
2017-11-28T07:55:18.236Z,1268
2017-11-28T07:55:43.698Z,1760
2017-11-28T07:56:09.170Z,1736
2017-11-28T07:56:34.647Z,1272
2017-11-28T07:57:00.185Z,1036
2017-11-28T07:57:25.681Z,900
2017-11-28T07:57:51.158Z,860
2017-11-28T07:58:16.648Z,832
2017-11-28T07:58:42.094Z,876
2017-11-28T07:59:07.561Z,908
2017-11-28T07:59:33.034Z,968
2017-11-28T07:59:58.476Z,1020
2017-11-28T08:00:24.008Z,1160
2017-11-28T08:01:32.706Z,1172
2017-11-28T08:01:58.205Z,1232
2017-11-28T08:02:23.711Z,1216
2017-11-28T08:02:49.189Z,1220
2017-11-28T08:03:14.699Z,1168
2017-11-28T08:03:40.196Z,1156
2017-11-28T08:04:05.682Z,1160
2017-11-28T08:04:31.208Z,1116
2017-11-28T08:04:56.699Z,1156
2017-11-28T08:05:22.182Z,1664
2017-11-28T08:05:47.642Z,1680
2017-11-28T08:06:13.151Z,1268
2017-11-28T08:06:38.621Z,1060
2017-11-28T08:07:04.092Z,884
2017-11-28T08:07:29.560Z,772
2017-11-28T08:07:55.087Z,752
2017-11-28T08:08:20.549Z,816
2017-11-28T08:08:46.111Z,856
2017-11-28T08:09:11.571Z,888
2017-11-28T08:09:37.069Z,924
2017-11-28T08:10:02.587Z,920
2017-11-28T08:10:28.060Z,928
2017-11-28T08:10:53.561Z,944
2017-11-28T08:11:19.039Z,936
2017-11-28T08:11:44.539Z,968
2017-11-28T08:12:10.049Z,1012
2017-11-28T08:12:35.525Z,1036
2017-11-28T08:13:01.009Z,1044
2017-11-28T08:13:26.523Z,1052
2017-11-28T08:13:51.991Z,1048
2017-11-28T08:14:17.493Z,1052
2017-11-28T08:14:42.984Z,1060
2017-11-28T08:15:08.430Z,1080
2017-11-28T08:15:33.948Z,1116
2017-11-28T08:15:59.422Z,1100
2017-11-28T08:16:24.939Z,1108
2017-11-28T08:16:50.411Z,1128
2017-11-28T08:17:15.921Z,1148
2017-11-28T08:17:41.386Z,1184
2017-11-28T08:18:06.887Z,1192
2017-11-28T08:18:32.368Z,1268
2017-11-28T08:18:57.883Z,1252
2017-11-28T08:19:23.330Z,1224
2017-11-28T08:19:48.814Z,1180
2017-11-28T08:20:14.355Z,1192
2017-11-28T08:20:39.791Z,1200
2017-11-28T08:21:05.279Z,1252
2017-11-28T08:21:30.787Z,1376
2017-11-28T08:21:56.254Z,1432
2017-11-28T08:22:21.756Z,1384
2017-11-28T08:22:47.239Z,1308
2017-11-28T08:23:12.718Z,1260
2017-11-28T08:23:38.254Z,1260
2017-11-28T08:24:03.742Z,1276
2017-11-28T08:24:29.190Z,1264
2017-11-28T08:24:54.679Z,1388
2017-11-28T08:25:20.145Z,1392
2017-11-28T08:25:45.641Z,1384
2017-11-28T08:26:11.122Z,1316
2017-11-28T08:26:36.605Z,1304
2017-11-28T08:27:02.109Z,1328
2017-11-28T08:27:27.561Z,1344
2017-11-28T08:27:53.069Z,1364
2017-11-28T08:28:18.540Z,1340
2017-11-28T08:28:44.042Z,1508
2017-11-28T08:29:09.504Z,1636
2017-11-28T08:29:35.002Z,1664
2017-11-28T08:30:00.517Z,1540
2017-11-28T08:30:26.030Z,1616
2017-11-28T08:30:51.515Z,1544
2017-11-28T08:31:17.019Z,1540
2017-11-28T08:31:42.509Z,1648
2017-11-28T08:32:07.977Z,1692
2017-11-28T08:32:33.429Z,1648
2017-11-28T08:32:58.949Z,1684
2017-11-28T08:33:24.498Z,1664
2017-11-28T08:33:49.957Z,1712
2017-11-28T08:34:15.425Z,1752
2017-11-28T08:34:40.885Z,1828
2017-11-28T08:35:06.371Z,2160
2017-11-28T08:35:31.814Z,2292
2017-11-28T08:35:57.298Z,2088
2017-11-28T08:36:22.804Z,1928
2017-11-28T08:36:48.283Z,1692
2017-11-28T08:37:13.808Z,1728
2017-11-28T08:37:39.319Z,1636
2017-11-28T08:38:04.793Z,1760
2017-11-28T08:38:30.270Z,1564
2017-11-28T08:38:55.768Z,1532
2017-11-28T08:39:21.242Z,1376
2017-11-28T08:39:46.728Z,1316
2017-11-28T08:40:12.198Z,1288
2017-11-28T08:40:37.707Z,1284
2017-11-28T08:41:03.173Z,1268
2017-11-28T08:41:28.622Z,1260
2017-11-28T08:41:54.246Z,1272
2017-11-28T08:42:19.764Z,1240
2017-11-28T08:42:45.245Z,1252
2017-11-28T08:43:10.716Z,1372
2017-11-28T08:43:36.392Z,1508
2017-11-28T08:44:01.817Z,1532
2017-11-28T08:44:27.366Z,1456
2017-11-28T08:44:52.851Z,1412
2017-11-28T08:45:18.349Z,1420
2017-11-28T08:45:43.830Z,1400
2017-11-28T08:46:09.298Z,1300
2017-11-28T08:46:34.754Z,1308
2017-11-28T08:47:00.223Z,1384
2017-11-28T08:47:25.734Z,1408
2017-11-28T08:47:51.203Z,1404
2017-11-28T08:48:16.723Z,1408
2017-11-28T08:48:42.237Z,1376
2017-11-28T08:49:07.622Z,1356
2017-11-28T08:49:33.136Z,1352
2017-11-28T08:49:58.576Z,1344
2017-11-28T08:50:24.040Z,1528
2017-11-28T08:50:49.519Z,1424
2017-11-28T08:51:15.012Z,1400
2017-11-28T08:51:40.506Z,1384
2017-11-28T08:52:05.949Z,1340
2017-11-28T08:52:31.422Z,1364
2017-11-28T08:52:56.928Z,1492
2017-11-28T08:53:22.401Z,1432
2017-11-28T08:53:47.900Z,1408
2017-11-28T08:54:13.399Z,1532
2017-11-28T08:54:38.887Z,1380
2017-11-28T08:55:04.363Z,1568
2017-11-28T08:55:29.934Z,1472
2017-11-28T08:55:55.342Z,1452
2017-11-28T08:56:20.853Z,1428
2017-11-28T08:56:46.264Z,1444
2017-11-28T08:57:11.755Z,1488
2017-11-28T08:57:37.207Z,1524
2017-11-28T08:58:02.740Z,1468
2017-11-28T08:58:28.191Z,1424
2017-11-28T08:58:53.693Z,1424
2017-11-28T08:59:19.163Z,1448
2017-11-28T08:59:44.672Z,1448
2017-11-28T09:00:10.163Z,1532
2017-11-28T09:00:35.611Z,1516
2017-11-28T09:01:01.105Z,1440
2017-11-28T09:01:26.624Z,1436
2017-11-28T09:01:52.132Z,1464
2017-11-28T09:02:17.621Z,1460
2017-11-28T09:02:43.053Z,1456
2017-11-28T09:03:08.609Z,1484
2017-11-28T09:03:34.066Z,1472
2017-11-28T09:03:59.599Z,1588
2017-11-28T09:04:25.093Z,1540
2017-11-28T09:04:50.585Z,1484
2017-11-28T09:05:16.060Z,1540
2017-11-28T09:05:41.532Z,1540
2017-11-28T09:06:07.033Z,1564
2017-11-28T09:06:32.482Z,1508
2017-11-28T09:06:57.938Z,1468
2017-11-28T09:07:23.436Z,1484
2017-11-28T09:07:48.927Z,1528
2017-11-28T09:08:14.403Z,1520
2017-11-28T09:08:39.916Z,1552
2017-11-28T09:09:05.381Z,1584
2017-11-28T09:09:30.951Z,1608
2017-11-28T09:09:56.425Z,1828
2017-11-28T09:10:21.882Z,1792
2017-11-28T09:10:47.410Z,1772
2017-11-28T09:11:12.901Z,1744
2017-11-28T09:11:38.398Z,1800
2017-11-28T09:12:03.843Z,1940
2017-11-28T09:12:29.293Z,1892
2017-11-28T09:12:54.786Z,1780
2017-11-28T09:13:20.261Z,1668
2017-11-28T09:13:45.775Z,1692
2017-11-28T09:14:11.321Z,1804
2017-11-28T09:14:36.805Z,1796
2017-11-28T09:15:02.280Z,1816
2017-11-28T09:15:27.782Z,1816
2017-11-28T09:15:53.253Z,1820
2017-11-28T09:16:18.716Z,1804
2017-11-28T09:16:44.259Z,1852
2017-11-28T09:17:09.722Z,1840
2017-11-28T09:17:35.228Z,1792
2017-11-28T09:18:00.814Z,1724
2017-11-28T09:18:26.233Z,1724
2017-11-28T09:18:51.725Z,1704
2017-11-28T09:19:17.290Z,1844
2017-11-28T09:19:42.724Z,2028
2017-11-28T09:20:08.251Z,2060
2017-11-28T09:20:33.724Z,2184
2017-11-28T09:20:59.203Z,2332
2017-11-28T09:21:24.718Z,2460
2017-11-28T09:21:50.193Z,2612
2017-11-28T09:22:15.714Z,2792
2017-11-28T09:22:41.252Z,3100
2017-11-28T09:23:06.690Z,3456
2017-11-28T09:23:32.170Z,3676
2017-11-28T09:23:57.630Z,3872
2017-11-28T09:24:23.121Z,3916
2017-11-28T09:24:48.595Z,3956
2017-11-28T09:25:14.051Z,3856
2017-11-28T09:25:39.540Z,3664
2017-11-28T09:26:05.029Z,3620
2017-11-28T09:26:30.483Z,3616
2017-11-28T09:26:56.005Z,3788
2017-11-28T09:27:21.508Z,4024
2017-11-28T09:27:47.014Z,4020
2017-11-28T09:28:12.498Z,3968
2017-11-28T09:28:37.985Z,3944
2017-11-28T09:29:03.517Z,3948
2017-11-28T09:29:28.975Z,3668
2017-11-28T09:29:54.443Z,3680
2017-11-28T09:30:19.914Z,3768
2017-11-28T09:30:45.444Z,3720
2017-11-28T09:31:10.968Z,3612
2017-11-28T09:31:36.393Z,3632
2017-11-28T09:32:01.885Z,3688
2017-11-28T09:32:27.369Z,3756
2017-11-28T09:32:52.838Z,3640
2017-11-28T09:33:18.342Z,3552
2017-11-28T09:33:43.789Z,3388
2017-11-28T09:34:09.269Z,3296
2017-11-28T09:34:34.756Z,3332
2017-11-28T09:35:00.207Z,3460
2017-11-28T09:35:25.706Z,3436
2017-11-28T09:35:51.162Z,3340
2017-11-28T09:36:16.686Z,3192
2017-11-28T09:36:42.150Z,2964
2017-11-28T09:37:07.630Z,2792
2017-11-28T09:37:33.099Z,2676
2017-11-28T09:37:58.542Z,2564
2017-11-28T09:38:24.025Z,2560
2017-11-28T09:38:49.491Z,2668
2017-11-28T09:39:15.002Z,2784
2017-11-28T09:39:40.493Z,2984
2017-11-28T09:40:06.062Z,3512
2017-11-28T09:40:31.504Z,3524
2017-11-28T09:40:57.080Z,2960
2017-11-28T09:41:22.597Z,2600
2017-11-28T09:41:48.028Z,2260
2017-11-28T09:42:13.550Z,2272
2017-11-28T09:42:39.060Z,2244
2017-11-28T09:43:04.526Z,2212
2017-11-28T09:43:30.089Z,2204
2017-11-28T09:43:55.546Z,2160
2017-11-28T09:44:20.993Z,2164
2017-11-28T09:44:46.507Z,2272
2017-11-28T09:45:11.994Z,2276
2017-11-28T09:45:37.458Z,2380
2017-11-28T09:46:02.988Z,2452
2017-11-28T09:46:28.518Z,2484
2017-11-28T09:46:53.953Z,2344
2017-11-28T09:47:19.419Z,2472
2017-11-28T09:47:44.876Z,3320
2017-11-28T09:48:10.437Z,3692
2017-11-28T09:48:35.884Z,3660
2017-11-28T09:49:01.344Z,3680
2017-11-28T09:49:26.845Z,3740
2017-11-28T09:49:52.298Z,3316
2017-11-28T09:50:17.782Z,3480
2017-11-28T09:50:43.265Z,3172
2017-11-28T09:51:08.832Z,2420
2017-11-28T09:51:34.301Z,2456
2017-11-28T09:51:59.852Z,2316
2017-11-28T09:52:25.289Z,2072
2017-11-28T09:52:50.718Z,2088
2017-11-28T09:53:16.207Z,2024
2017-11-28T09:53:41.715Z,1952
2017-11-28T09:54:07.204Z,2108
2017-11-28T09:54:32.729Z,2208
2017-11-28T09:54:58.487Z,2484
2017-11-28T09:55:23.964Z,2588
2017-11-28T09:55:49.374Z,2404
2017-11-28T09:56:14.854Z,2136
2017-11-28T09:56:40.318Z,2276
2017-11-28T09:57:05.794Z,2244
2017-11-28T09:57:31.302Z,2400
2017-11-28T09:57:56.825Z,2316
2017-11-28T09:58:22.286Z,2768
2017-11-28T09:58:47.711Z,2744
2017-11-28T09:59:13.184Z,3620
2017-11-28T09:59:38.658Z,3368
2017-11-28T10:00:04.155Z,3148
2017-11-28T10:00:29.633Z,2960
2017-11-28T10:00:55.160Z,3644
2017-11-28T10:01:20.634Z,3988
2017-11-28T10:01:46.128Z,3504
2017-11-28T10:02:11.638Z,3152
2017-11-28T10:02:37.115Z,3156
2017-11-28T10:03:02.654Z,3824
2017-11-28T10:03:28.058Z,3428
2017-11-28T10:03:53.558Z,2840
2017-11-28T10:04:19.067Z,2648
2017-11-28T10:04:44.558Z,2424
2017-11-28T10:05:10.066Z,2380
2017-11-28T10:05:35.566Z,2348
2017-11-28T10:06:01.063Z,2468
2017-11-28T10:06:26.468Z,2668
2017-11-28T10:06:51.940Z,2444
2017-11-28T10:07:17.483Z,2796
2017-11-28T10:07:42.980Z,2908
2017-11-28T10:08:08.479Z,2520
2017-11-28T10:08:33.992Z,2428
2017-11-28T10:08:59.492Z,2400
2017-11-28T10:09:24.987Z,2124
2017-11-28T10:09:50.489Z,2304
2017-11-28T10:10:15.974Z,2248
2017-11-28T10:10:41.493Z,2208
2017-11-28T10:11:06.936Z,2124
2017-11-28T10:11:32.442Z,2096
2017-11-28T10:11:57.949Z,2064
2017-11-28T10:12:23.427Z,2108
2017-11-28T10:12:48.941Z,2136
2017-11-28T10:13:14.378Z,2212
2017-11-28T10:13:39.925Z,2160
2017-11-28T10:14:05.379Z,2336
2017-11-28T10:14:30.801Z,3112
2017-11-28T10:14:56.303Z,3584
2017-11-28T10:15:21.752Z,3472
2017-11-28T10:15:47.290Z,2780
2017-11-28T10:16:12.742Z,2684
2017-11-28T10:16:38.236Z,2440
2017-11-28T10:17:03.729Z,2164
2017-11-28T10:17:29.239Z,2076
2017-11-28T10:17:54.694Z,2108
2017-11-28T10:18:20.196Z,2172
2017-11-28T10:18:45.677Z,2316
2017-11-28T10:19:11.135Z,2232
2017-11-28T10:19:36.623Z,2116
2017-11-28T10:20:02.087Z,2044
2017-11-28T10:20:27.620Z,2056
2017-11-28T10:20:53.133Z,2144
2017-11-28T10:21:18.593Z,2572
2017-11-28T10:21:44.076Z,2692
2017-11-28T10:22:09.573Z,2268
2017-11-28T10:22:35.077Z,2300
2017-11-28T10:23:00.568Z,2112
2017-11-28T10:23:26.088Z,2112
2017-11-28T10:23:51.558Z,2100
2017-11-28T10:24:17.107Z,1928
2017-11-28T10:24:42.550Z,1876
2017-11-28T10:25:08.036Z,1812
2017-11-28T10:25:33.493Z,1788
2017-11-28T10:25:58.990Z,1920
2017-11-28T10:26:24.449Z,1984
2017-11-28T10:26:49.910Z,1996
2017-11-28T10:27:15.394Z,2052
2017-11-28T10:27:40.871Z,2368
2017-11-28T10:28:06.423Z,2400
2017-11-28T10:28:31.909Z,2172
2017-11-28T10:28:57.375Z,1984
2017-11-28T10:29:22.846Z,1888
2017-11-28T10:29:48.374Z,1848
2017-11-28T10:30:13.867Z,2052
2017-11-28T10:30:39.312Z,2556
2017-11-28T10:31:04.865Z,3232
2017-11-28T10:31:30.303Z,2724
2017-11-28T10:31:55.764Z,2200
2017-11-28T10:32:21.254Z,2048
2017-11-28T10:32:46.711Z,1988
2017-11-28T10:33:12.160Z,2032
2017-11-28T10:33:37.640Z,2048
2017-11-28T10:34:03.134Z,2116
2017-11-28T10:34:28.600Z,1968
2017-11-28T10:34:54.094Z,2080
2017-11-28T10:35:19.672Z,2200
2017-11-28T10:35:45.145Z,2256
2017-11-28T10:36:10.622Z,2504
2017-11-28T10:36:36.136Z,2448
2017-11-28T10:37:01.644Z,3420
2017-11-28T10:37:27.140Z,2924
2017-11-28T10:37:52.597Z,2500
2017-11-28T10:38:18.145Z,2272
2017-11-28T10:38:43.593Z,2640
2017-11-28T10:39:09.028Z,3360
2017-11-28T10:39:34.523Z,4128
2017-11-28T10:40:00.005Z,3156
2017-11-28T10:40:25.465Z,2596
2017-11-28T10:40:50.973Z,2448
2017-11-28T10:41:16.431Z,2308
2017-11-28T10:41:41.937Z,2216
2017-11-28T10:42:07.422Z,2200
2017-11-28T10:42:32.938Z,2368
2017-11-28T10:42:58.374Z,2416
2017-11-28T10:43:23.863Z,2488
2017-11-28T10:43:49.328Z,2744
2017-11-28T10:44:14.834Z,3580
2017-11-28T10:44:40.277Z,4260
2017-11-28T10:45:05.750Z,4516
2017-11-28T10:45:31.237Z,4604
2017-11-28T10:45:56.720Z,4632
2017-11-28T10:46:22.171Z,3856
2017-11-28T10:46:47.680Z,3432
2017-11-28T10:47:13.179Z,3132
2017-11-28T10:47:38.656Z,2924
2017-11-28T10:48:04.157Z,3076
2017-11-28T10:48:29.653Z,3260
2017-11-28T10:48:55.127Z,3788
2017-11-28T10:49:20.604Z,3468
2017-11-28T10:49:46.101Z,3188
2017-11-28T10:50:11.617Z,3096
2017-11-28T10:50:37.140Z,2904
2017-11-28T10:51:02.603Z,2676
2017-11-28T10:51:28.077Z,2868
2017-11-28T10:51:53.765Z,3044
2017-11-28T10:52:19.120Z,3532
2017-11-28T10:52:44.510Z,4140
2017-11-28T10:53:10.009Z,5172
2017-11-28T10:53:35.520Z,4964
2017-11-28T10:54:00.995Z,5180
2017-11-28T10:54:26.460Z,4516
2017-11-28T10:54:52.000Z,3796
2017-11-28T10:55:17.457Z,3740
2017-11-28T10:55:42.966Z,3788
2017-11-28T10:56:08.484Z,3780
2017-11-28T10:56:33.961Z,3824
2017-11-28T10:56:59.491Z,4232
2017-11-28T10:57:24.975Z,4140
2017-11-28T10:57:50.584Z,3776
2017-11-28T10:58:16.043Z,3860
2017-11-28T10:58:41.508Z,4420
2017-11-28T10:59:07.084Z,4324